sensor_id;sensor_type;location;lat;lon;timestamp;temperature;humidity
19966;DHT22;10144;50.874;4.762;2023-12-14T00:01:57;8.60;99.90
19966;DHT22;10144;50.874;4.762;2023-12-14T00:04:24;8.60;99.90
19966;DHT22;10144;50.874;4.762;2023-12-14T00:06:51;8.60;99.90
19966;DHT22;10144;50.874;4.762;2023-12-14T00:09:23;8.70;99.90
19966;DHT22;10144;50.874;4.762;2023-12-14T00:11:52;8.60;99.90
19966;DHT22;10144;50.874;4.762;2023-12-14T00:14:18;8.60;99.90
19966;DHT22;10144;50.874;4.762;2023-12-14T00:16:47;8.50;99.90
19966;DHT22;10144;50.874;4.762;2023-12-14T00:19:18;8.50;99.90
19966;DHT22;10144;50.874;4.762;2023-12-14T00:21:47;8.60;99.90
19966;DHT22;10144;50.874;4.762;2023-12-14T00:24:16;8.60;99.90
19966;DHT22;10144;50.874;4.762;2023-12-14T00:26:45;8.50;99.90
19966;DHT22;10144;50.874;4.762;2023-12-14T00:29:13;8.50;99.90
19966;DHT22;10144;50.874;4.762;2023-12-14T00:31:39;8.60;99.90
19966;DHT22;10144;50.874;4.762;2023-12-14T00:34:08;8.50;99.90
19966;DHT22;10144;50.874;4.762;2023-12-14T00:36:37;8.50;99.90
19966;DHT22;10144;50.874;4.762;2023-12-14T00:39:05;8.50;99.90
19966;DHT22;10144;50.874;4.762;2023-12-14T00:41:34;8.50;99.90
19966;DHT22;10144;50.874;4.762;2023-12-14T00:44:03;8.60;99.90
19966;DHT22;10144;50.874;4.762;2023-12-14T00:46:32;8.50;99.90
19966;DHT22;10144;50.874;4.762;2023-12-14T00:49:01;8.50;99.90
19966;DHT22;10144;50.874;4.762;2023-12-14T00:51:30;8.60;99.90
19966;DHT22;10144;50.874;4.762;2023-12-14T00:53:59;8.60;99.90
19966;DHT22;10144;50.874;4.762;2023-12-14T00:56:28;8.60;99.90
19966;DHT22;10144;50.874;4.762;2023-12-14T00:58:53;8.60;99.90
19966;DHT22;10144;50.874;4.762;2023-12-14T01:01:19;8.60;99.90
19966;DHT22;10144;50.874;4.762;2023-12-14T01:03:48;8.70;99.90
19966;DHT22;10144;50.874;4.762;2023-12-14T01:06:17;8.60;99.90
19966;DHT22;10144;50.874;4.762;2023-12-14T01:08:44;8.70;99.90
19966;DHT22;10144;50.874;4.762;2023-12-14T01:11:11;8.60;99.90
19966;DHT22;10144;50.874;4.762;2023-12-14T01:13:40;8.60;99.90
19966;DHT22;10144;50.874;4.762;2023-12-14T01:16:09;8.60;99.90
19966;DHT22;10144;50.874;4.762;2023-12-14T01:18:34;8.60;99.90
19966;DHT22;10144;50.874;4.762;2023-12-14T01:21:00;8.50;99.90
19966;DHT22;10144;50.874;4.762;2023-12-14T01:23:26;8.50;99.90
19966;DHT22;10144;50.874;4.762;2023-12-14T01:25:54;8.50;99.90
19966;DHT22;10144;50.874;4.762;2023-12-14T01:28:20;8.50;99.90
19966;DHT22;10144;50.874;4.762;2023-12-14T01:30:46;8.40;99.90
19966;DHT22;10144;50.874;4.762;2023-12-14T01:33:15;8.40;99.90
19966;DHT22;10144;50.874;4.762;2023-12-14T01:35:44;8.40;99.90
19966;DHT22;10144;50.874;4.762;2023-12-14T01:38:12;8.40;99.90
19966;DHT22;10144;50.874;4.762;2023-12-14T01:40:40;8.30;99.90
19966;DHT22;10144;50.874;4.762;2023-12-14T01:43:09;8.40;99.90
19966;DHT22;10144;50.874;4.762;2023-12-14T01:45:45;8.30;99.90
19966;DHT22;10144;50.874;4.762;2023-12-14T01:48:11;8.30;99.90
19966;DHT22;10144;50.874;4.762;2023-12-14T01:50:40;8.30;99.90
19966;DHT22;10144;50.874;4.762;2023-12-14T01:53:12;8.30;99.90
19966;DHT22;10144;50.874;4.762;2023-12-14T01:55:41;8.20;99.90
19966;DHT22;10144;50.874;4.762;2023-12-14T01:58:07;8.00;99.90
19966;DHT22;10144;50.874;4.762;2023-12-14T02:03:29;7.90;99.90
19966;DHT22;10144;50.874;4.762;2023-12-14T02:05:57;7.90;99.90
19966;DHT22;10144;50.874;4.762;2023-12-14T02:08:24;7.80;99.90
19966;DHT22;10144;50.874;4.762;2023-12-14T02:10:51;7.70;99.90
19966;DHT22;10144;50.874;4.762;2023-12-14T02:13:20;7.70;99.90
19966;DHT22;10144;50.874;4.762;2023-12-14T02:15:49;7.60;99.90
19966;DHT22;10144;50.874;4.762;2023-12-14T02:18:17;7.50;99.90
19966;DHT22;10144;50.874;4.762;2023-12-14T02:20:46;7.50;99.90
19966;DHT22;10144;50.874;4.762;2023-12-14T02:23:15;7.50;99.90
19966;DHT22;10144;50.874;4.762;2023-12-14T02:25:41;7.40;99.90
19966;DHT22;10144;50.874;4.762;2023-12-14T02:28:08;7.30;99.90
19966;DHT22;10144;50.874;4.762;2023-12-14T02:30:49;7.30;99.90
19966;DHT22;10144;50.874;4.762;2023-12-14T02:33:18;7.30;99.90
19966;DHT22;10144;50.874;4.762;2023-12-14T02:35:47;7.20;99.90
19966;DHT22;10144;50.874;4.762;2023-12-14T02:38:25;7.20;99.90
19966;DHT22;10144;50.874;4.762;2023-12-14T02:40:53;7.20;99.90
19966;DHT22;10144;50.874;4.762;2023-12-14T02:43:22;7.20;99.90
19966;DHT22;10144;50.874;4.762;2023-12-14T02:45:52;7.20;99.90
19966;DHT22;10144;50.874;4.762;2023-12-14T02:48:21;7.30;99.90
19966;DHT22;10144;50.874;4.762;2023-12-14T02:50:52;7.30;99.90
19966;DHT22;10144;50.874;4.762;2023-12-14T02:53:20;7.20;99.90
19966;DHT22;10144;50.874;4.762;2023-12-14T02:55:49;7.10;99.90
19966;DHT22;10144;50.874;4.762;2023-12-14T02:58:18;7.00;99.90
19966;DHT22;10144;50.874;4.762;2023-12-14T03:00:47;7.00;99.90
19966;DHT22;10144;50.874;4.762;2023-12-14T03:03:15;6.90;99.90
19966;DHT22;10144;50.874;4.762;2023-12-14T03:05:40;6.90;99.90
19966;DHT22;10144;50.874;4.762;2023-12-14T03:08:08;6.80;99.90
19966;DHT22;10144;50.874;4.762;2023-12-14T03:10:53;6.80;99.90
19966;DHT22;10144;50.874;4.762;2023-12-14T03:13:29;6.90;99.90
19966;DHT22;10144;50.874;4.762;2023-12-14T03:15:57;7.00;99.90
19966;DHT22;10144;50.874;4.762;2023-12-14T03:18:26;7.00;99.90
19966;DHT22;10144;50.874;4.762;2023-12-14T03:20:55;7.00;99.90
19966;DHT22;10144;50.874;4.762;2023-12-14T03:23:27;6.80;99.90
19966;DHT22;10144;50.874;4.762;2023-12-14T03:25:52;6.80;99.90
19966;DHT22;10144;50.874;4.762;2023-12-14T03:28:21;6.80;99.90
19966;DHT22;10144;50.874;4.762;2023-12-14T03:30:47;6.80;99.90
19966;DHT22;10144;50.874;4.762;2023-12-14T03:33:19;6.80;99.90
19966;DHT22;10144;50.874;4.762;2023-12-14T03:35:55;6.90;99.90
19966;DHT22;10144;50.874;4.762;2023-12-14T03:38:23;6.90;99.90
19966;DHT22;10144;50.874;4.762;2023-12-14T03:40:57;6.90;99.90
19966;DHT22;10144;50.874;4.762;2023-12-14T03:43:26;6.80;99.90
19966;DHT22;10144;50.874;4.762;2023-12-14T03:45:55;6.90;99.90
19966;DHT22;10144;50.874;4.762;2023-12-14T03:48:23;7.00;99.90
19966;DHT22;10144;50.874;4.762;2023-12-14T03:50:52;7.00;99.90
19966;DHT22;10144;50.874;4.762;2023-12-14T03:53:21;7.00;99.90
19966;DHT22;10144;50.874;4.762;2023-12-14T03:56:00;6.90;99.90
19966;DHT22;10144;50.874;4.762;2023-12-14T03:58:26;7.00;99.90
19966;DHT22;10144;50.874;4.762;2023-12-14T04:00:55;7.10;99.90
19966;DHT22;10144;50.874;4.762;2023-12-14T04:03:21;7.00;99.90
19966;DHT22;10144;50.874;4.762;2023-12-14T04:06:00;7.00;99.90
19966;DHT22;10144;50.874;4.762;2023-12-14T04:08:41;6.90;99.90
19966;DHT22;10144;50.874;4.762;2023-12-14T04:11:08;6.80;99.90
19966;DHT22;10144;50.874;4.762;2023-12-14T04:13:47;6.80;99.90
19966;DHT22;10144;50.874;4.762;2023-12-14T04:16:22;6.80;99.90
19966;DHT22;10144;50.874;4.762;2023-12-14T04:18:49;6.60;99.90
19966;DHT22;10144;50.874;4.762;2023-12-14T04:21:18;6.60;99.90
19966;DHT22;10144;50.874;4.762;2023-12-14T04:23:49;6.50;99.90
19966;DHT22;10144;50.874;4.762;2023-12-14T04:26:17;6.50;99.90
19966;DHT22;10144;50.874;4.762;2023-12-14T04:28:45;6.40;99.90
19966;DHT22;10144;50.874;4.762;2023-12-14T04:31:14;6.40;99.90
19966;DHT22;10144;50.874;4.762;2023-12-14T04:33:41;6.40;99.90
19966;DHT22;10144;50.874;4.762;2023-12-14T04:36:21;6.40;99.90
19966;DHT22;10144;50.874;4.762;2023-12-14T04:38:59;6.30;99.90
19966;DHT22;10144;50.874;4.762;2023-12-14T04:41:25;6.40;99.90
19966;DHT22;10144;50.874;4.762;2023-12-14T04:43:54;6.40;99.90
19966;DHT22;10144;50.874;4.762;2023-12-14T04:46:25;6.30;99.90
19966;DHT22;10144;50.874;4.762;2023-12-14T04:48:52;6.30;99.90
19966;DHT22;10144;50.874;4.762;2023-12-14T04:51:21;6.20;99.90
19966;DHT22;10144;50.874;4.762;2023-12-14T04:53:49;6.20;99.90
19966;DHT22;10144;50.874;4.762;2023-12-14T04:56:18;6.20;99.90
19966;DHT22;10144;50.874;4.762;2023-12-14T04:58:43;6.10;99.90
19966;DHT22;10144;50.874;4.762;2023-12-14T05:01:11;6.00;99.90
19966;DHT22;10144;50.874;4.762;2023-12-14T05:03:39;6.10;99.90
19966;DHT22;10144;50.874;4.762;2023-12-14T05:06:08;6.00;99.90
19966;DHT22;10144;50.874;4.762;2023-12-14T05:08:37;6.00;99.90
19966;DHT22;10144;50.874;4.762;2023-12-14T05:11:17;6.00;99.90
19966;DHT22;10144;50.874;4.762;2023-12-14T05:13:45;5.90;99.90
19966;DHT22;10144;50.874;4.762;2023-12-14T05:16:17;6.00;99.90
19966;DHT22;10144;50.874;4.762;2023-12-14T05:18:42;5.90;99.90
19966;DHT22;10144;50.874;4.762;2023-12-14T05:21:08;5.80;99.90
19966;DHT22;10144;50.874;4.762;2023-12-14T05:23:35;5.80;99.90
19966;DHT22;10144;50.874;4.762;2023-12-14T05:26:01;5.80;99.90
19966;DHT22;10144;50.874;4.762;2023-12-14T05:28:33;5.80;99.90
19966;DHT22;10144;50.874;4.762;2023-12-14T05:30:59;5.80;99.90
19966;DHT22;10144;50.874;4.762;2023-12-14T05:33:26;5.80;99.90
19966;DHT22;10144;50.874;4.762;2023-12-14T05:35:55;5.70;99.90
19966;DHT22;10144;50.874;4.762;2023-12-14T05:38:20;5.70;99.90
19966;DHT22;10144;50.874;4.762;2023-12-14T05:40:58;5.70;99.90
19966;DHT22;10144;50.874;4.762;2023-12-14T05:43:30;5.70;99.90
19966;DHT22;10144;50.874;4.762;2023-12-14T05:45:59;5.80;99.90
19966;DHT22;10144;50.874;4.762;2023-12-14T05:48:27;5.70;99.90
19966;DHT22;10144;50.874;4.762;2023-12-14T05:51:00;5.80;99.90
19966;DHT22;10144;50.874;4.762;2023-12-14T05:53:29;5.80;99.90
19966;DHT22;10144;50.874;4.762;2023-12-14T05:55:55;5.80;99.90
19966;DHT22;10144;50.874;4.762;2023-12-14T05:58:21;5.80;99.90
19966;DHT22;10144;50.874;4.762;2023-12-14T06:00:46;5.80;99.90
19966;DHT22;10144;50.874;4.762;2023-12-14T06:03:18;5.90;99.90
19966;DHT22;10144;50.874;4.762;2023-12-14T06:05:44;5.80;99.90
19966;DHT22;10144;50.874;4.762;2023-12-14T06:08:09;5.80;99.90
19966;DHT22;10144;50.874;4.762;2023-12-14T06:10:38;5.80;99.90
19966;DHT22;10144;50.874;4.762;2023-12-14T06:13:07;5.80;99.90
19966;DHT22;10144;50.874;4.762;2023-12-14T06:15:39;5.70;99.90
19966;DHT22;10144;50.874;4.762;2023-12-14T06:18:07;5.70;99.90
19966;DHT22;10144;50.874;4.762;2023-12-14T06:20:34;5.80;99.90
19966;DHT22;10144;50.874;4.762;2023-12-14T06:23:01;5.80;99.90
19966;DHT22;10144;50.874;4.762;2023-12-14T06:25:30;5.90;99.90
19966;DHT22;10144;50.874;4.762;2023-12-14T06:27:58;5.80;99.90
19966;DHT22;10144;50.874;4.762;2023-12-14T06:30:30;5.90;99.90
19966;DHT22;10144;50.874;4.762;2023-12-14T06:32:56;5.80;99.90
19966;DHT22;10144;50.874;4.762;2023-12-14T06:35:25;5.80;99.90
19966;DHT22;10144;50.874;4.762;2023-12-14T06:37:56;5.80;99.90
19966;DHT22;10144;50.874;4.762;2023-12-14T06:40:25;5.70;99.90
19966;DHT22;10144;50.874;4.762;2023-12-14T06:42:52;5.80;99.90
19966;DHT22;10144;50.874;4.762;2023-12-14T06:45:20;5.80;99.90
19966;DHT22;10144;50.874;4.762;2023-12-14T06:47:49;5.80;99.90
19966;DHT22;10144;50.874;4.762;2023-12-14T06:50:16;5.90;99.90
19966;DHT22;10144;50.874;4.762;2023-12-14T06:52:45;5.80;99.90
19966;DHT22;10144;50.874;4.762;2023-12-14T06:55:12;5.90;99.90
19966;DHT22;10144;50.874;4.762;2023-12-14T06:57:43;5.80;99.90
19966;DHT22;10144;50.874;4.762;2023-12-14T07:00:11;5.80;99.90
19966;DHT22;10144;50.874;4.762;2023-12-14T07:02:37;5.90;99.90
19966;DHT22;10144;50.874;4.762;2023-12-14T07:05:03;5.90;99.90
19966;DHT22;10144;50.874;4.762;2023-12-14T07:07:34;5.90;99.90
19966;DHT22;10144;50.874;4.762;2023-12-14T07:10:01;5.90;99.90
19966;DHT22;10144;50.874;4.762;2023-12-14T07:12:28;5.90;99.90
19966;DHT22;10144;50.874;4.762;2023-12-14T07:15:00;5.90;99.90
19966;DHT22;10144;50.874;4.762;2023-12-14T07:17:29;6.00;99.90
19966;DHT22;10144;50.874;4.762;2023-12-14T07:19:58;5.90;99.90
19966;DHT22;10144;50.874;4.762;2023-12-14T07:22:25;6.00;99.90
19966;DHT22;10144;50.874;4.762;2023-12-14T07:24:53;6.00;99.90
19966;DHT22;10144;50.874;4.762;2023-12-14T07:27:20;6.00;99.90
19966;DHT22;10144;50.874;4.762;2023-12-14T07:29:49;5.90;99.90
19966;DHT22;10144;50.874;4.762;2023-12-14T07:32:21;5.90;99.90
19966;DHT22;10144;50.874;4.762;2023-12-14T07:34:47;5.90;99.90
19966;DHT22;10144;50.874;4.762;2023-12-14T07:37:16;5.90;99.90
19966;DHT22;10144;50.874;4.762;2023-12-14T07:39:42;5.90;99.90
19966;DHT22;10144;50.874;4.762;2023-12-14T07:44:34;6.20;99.90
19966;DHT22;10144;50.874;4.762;2023-12-14T07:47:01;6.10;99.90
19966;DHT22;10144;50.874;4.762;2023-12-14T07:49:29;6.00;99.90
19966;DHT22;10144;50.874;4.762;2023-12-14T07:51:57;5.90;99.90
19966;DHT22;10144;50.874;4.762;2023-12-14T07:54:25;5.80;99.90
19966;DHT22;10144;50.874;4.762;2023-12-14T07:56:55;5.60;99.90
19966;DHT22;10144;50.874;4.762;2023-12-14T07:59:24;5.50;99.90
19966;DHT22;10144;50.874;4.762;2023-12-14T08:01:55;5.40;99.90
19966;DHT22;10144;50.874;4.762;2023-12-14T08:04:23;5.40;99.90
19966;DHT22;10144;50.874;4.762;2023-12-14T08:06:55;5.40;99.90
19966;DHT22;10144;50.874;4.762;2023-12-14T08:09:27;5.30;99.90
19966;DHT22;10144;50.874;4.762;2023-12-14T08:11:55;5.20;99.90
19966;DHT22;10144;50.874;4.762;2023-12-14T08:14:21;5.30;99.90
19966;DHT22;10144;50.874;4.762;2023-12-14T08:16:47;5.30;99.90
19966;DHT22;10144;50.874;4.762;2023-12-14T08:19:15;5.30;99.90
19966;DHT22;10144;50.874;4.762;2023-12-14T08:21:41;5.40;99.90
19966;DHT22;10144;50.874;4.762;2023-12-14T08:24:09;5.50;99.90
19966;DHT22;10144;50.874;4.762;2023-12-14T08:26:36;5.60;99.90
19966;DHT22;10144;50.874;4.762;2023-12-14T08:29:03;5.60;99.90
19966;DHT22;10144;50.874;4.762;2023-12-14T08:31:30;5.70;99.90
19966;DHT22;10144;50.874;4.762;2023-12-14T08:33:57;5.80;99.90
19966;DHT22;10144;50.874;4.762;2023-12-14T08:36:22;5.80;99.90
19966;DHT22;10144;50.874;4.762;2023-12-14T08:38:51;5.80;99.90
19966;DHT22;10144;50.874;4.762;2023-12-14T08:41:20;5.90;99.90
19966;DHT22;10144;50.874;4.762;2023-12-14T08:43:46;6.10;99.90
19966;DHT22;10144;50.874;4.762;2023-12-14T08:46:12;7.00;99.90
19966;DHT22;10144;50.874;4.762;2023-12-14T08:48:38;8.30;99.90
19966;DHT22;10144;50.874;4.762;2023-12-14T08:51:04;9.70;99.90
19966;DHT22;10144;50.874;4.762;2023-12-14T08:53:29;10.90;99.90
19966;DHT22;10144;50.874;4.762;2023-12-14T08:55:55;11.80;99.90
19966;DHT22;10144;50.874;4.762;2023-12-14T08:58:21;12.60;99.90
19966;DHT22;10144;50.874;4.762;2023-12-14T09:00:50;14.00;92.60
19966;DHT22;10144;50.874;4.762;2023-12-14T09:03:19;13.50;99.90
19966;DHT22;10144;50.874;4.762;2023-12-14T09:05:52;13.10;97.10
19966;DHT22;10144;50.874;4.762;2023-12-14T09:08:23;13.00;99.20
19966;DHT22;10144;50.874;4.762;2023-12-14T09:10:52;13.60;77.20
19966;DHT22;10144;50.874;4.762;2023-12-14T09:13:21;13.60;93.80
19966;DHT22;10144;50.874;4.762;2023-12-14T09:15:50;14.10;98.60
19966;DHT22;10144;50.874;4.762;2023-12-14T09:18:17;14.70;77.30
19966;DHT22;10144;50.874;4.762;2023-12-14T09:20:45;14.70;60.90
19966;DHT22;10144;50.874;4.762;2023-12-14T09:23:16;14.40;67.80
19966;DHT22;10144;50.874;4.762;2023-12-14T09:25:45;13.80;93.60
19966;DHT22;10144;50.874;4.762;2023-12-14T09:28:11;14.00;87.50
19966;DHT22;10144;50.874;4.762;2023-12-14T09:30:40;13.80;93.50
19966;DHT22;10144;50.874;4.762;2023-12-14T09:33:08;14.10;67.20
19966;DHT22;10144;50.874;4.762;2023-12-14T09:35:35;13.80;81.30
19966;DHT22;10144;50.874;4.762;2023-12-14T09:38:07;13.70;90.20
19966;DHT22;10144;50.874;4.762;2023-12-14T09:40:35;13.60;80.90
19966;DHT22;10144;50.874;4.762;2023-12-14T09:43:01;13.40;91.10
19966;DHT22;10144;50.874;4.762;2023-12-14T09:45:33;13.20;97.60
19966;DHT22;10144;50.874;4.762;2023-12-14T09:48:05;11.50;99.90
19966;DHT22;10144;50.874;4.762;2023-12-14T09:50:34;10.90;99.90
19966;DHT22;10144;50.874;4.762;2023-12-14T09:53:00;9.90;99.90
19966;DHT22;10144;50.874;4.762;2023-12-14T09:55:27;9.20;99.90
19966;DHT22;10144;50.874;4.762;2023-12-14T09:57:54;9.20;99.90
19966;DHT22;10144;50.874;4.762;2023-12-14T10:00:41;10.10;99.90
19966;DHT22;10144;50.874;4.762;2023-12-14T10:03:22;11.70;99.90
19966;DHT22;10144;50.874;4.762;2023-12-14T10:05:49;12.60;99.90
19966;DHT22;10144;50.874;4.762;2023-12-14T10:08:18;12.30;99.90
19966;DHT22;10144;50.874;4.762;2023-12-14T10:10:48;11.90;99.90
19966;DHT22;10144;50.874;4.762;2023-12-14T10:13:21;11.40;99.90
19966;DHT22;10144;50.874;4.762;2023-12-14T10:15:51;10.80;99.90
19966;DHT22;10144;50.874;4.762;2023-12-14T10:18:24;10.90;99.90
19966;DHT22;10144;50.874;4.762;2023-12-14T10:20:50;11.30;99.90
19966;DHT22;10144;50.874;4.762;2023-12-14T10:23:17;12.00;99.90
19966;DHT22;10144;50.874;4.762;2023-12-14T10:25:46;12.50;91.60
19966;DHT22;10144;50.874;4.762;2023-12-14T10:28:14;12.30;92.50
19966;DHT22;10144;50.874;4.762;2023-12-14T10:30:41;11.80;96.70
19966;DHT22;10144;50.874;4.762;2023-12-14T10:33:07;11.10;99.90
19966;DHT22;10144;50.874;4.762;2023-12-14T10:35:33;10.70;99.90
19966;DHT22;10144;50.874;4.762;2023-12-14T10:38:03;10.40;99.90
19966;DHT22;10144;50.874;4.762;2023-12-14T10:40:33;10.20;99.90
19966;DHT22;10144;50.874;4.762;2023-12-14T10:43:00;9.90;99.90
19966;DHT22;10144;50.874;4.762;2023-12-14T10:45:32;9.70;99.90
19966;DHT22;10144;50.874;4.762;2023-12-14T10:48:01;9.80;99.90
19966;DHT22;10144;50.874;4.762;2023-12-14T10:50:30;10.10;99.90
19966;DHT22;10144;50.874;4.762;2023-12-14T10:52:59;10.30;99.90
19966;DHT22;10144;50.874;4.762;2023-12-14T10:55:45;10.00;99.90
19966;DHT22;10144;50.874;4.762;2023-12-14T10:58:16;9.80;99.90
19966;DHT22;10144;50.874;4.762;2023-12-14T11:00:42;9.70;99.90
19966;DHT22;10144;50.874;4.762;2023-12-14T11:03:14;9.20;99.90
19966;DHT22;10144;50.874;4.762;2023-12-14T11:05:40;9.00;99.90
19966;DHT22;10144;50.874;4.762;2023-12-14T11:08:07;9.00;99.90
19966;DHT22;10144;50.874;4.762;2023-12-14T11:10:41;8.80;99.90
19966;DHT22;10144;50.874;4.762;2023-12-14T11:13:11;8.90;99.90
19966;DHT22;10144;50.874;4.762;2023-12-14T11:15:48;8.70;99.90
19966;DHT22;10144;50.874;4.762;2023-12-14T11:23:16;8.70;99.90
19966;DHT22;10144;50.874;4.762;2023-12-14T11:25:43;8.50;99.90
19966;DHT22;10144;50.874;4.762;2023-12-14T11:28:15;8.60;99.90
19966;DHT22;10144;50.874;4.762;2023-12-14T11:30:44;8.80;99.90
19966;DHT22;10144;50.874;4.762;2023-12-14T11:33:12;8.70;99.90
19966;DHT22;10144;50.874;4.762;2023-12-14T11:35:40;8.70;99.90
19966;DHT22;10144;50.874;4.762;2023-12-14T11:38:07;8.80;99.90
19966;DHT22;10144;50.874;4.762;2023-12-14T11:40:50;8.90;99.90
19966;DHT22;10144;50.874;4.762;2023-12-14T11:43:16;8.90;99.90
19966;DHT22;10144;50.874;4.762;2023-12-14T11:45:48;8.90;99.90
19966;DHT22;10144;50.874;4.762;2023-12-14T11:48:16;9.00;99.90
19966;DHT22;10144;50.874;4.762;2023-12-14T11:50:45;9.00;99.90
19966;DHT22;10144;50.874;4.762;2023-12-14T11:53:13;8.70;99.90
19966;DHT22;10144;50.874;4.762;2023-12-14T11:55:41;8.60;99.90
19966;DHT22;10144;50.874;4.762;2023-12-14T11:58:09;8.70;99.90
19966;DHT22;10144;50.874;4.762;2023-12-14T12:00:40;8.60;99.90
19966;DHT22;10144;50.874;4.762;2023-12-14T12:03:18;8.70;99.90
19966;DHT22;10144;50.874;4.762;2023-12-14T12:05:53;9.00;99.90
19966;DHT22;10144;50.874;4.762;2023-12-14T12:08:20;9.20;99.90
19966;DHT22;10144;50.874;4.762;2023-12-14T12:10:49;9.30;99.90
19966;DHT22;10144;50.874;4.762;2023-12-14T12:13:18;9.30;99.90
19966;DHT22;10144;50.874;4.762;2023-12-14T12:15:48;8.90;99.90
19966;DHT22;10144;50.874;4.762;2023-12-14T12:18:16;8.70;99.90
19966;DHT22;10144;50.874;4.762;2023-12-14T12:20:44;8.90;99.90
19966;DHT22;10144;50.874;4.762;2023-12-14T12:23:12;8.60;99.90
19966;DHT22;10144;50.874;4.762;2023-12-14T12:25:38;8.50;99.90
19966;DHT22;10144;50.874;4.762;2023-12-14T12:28:07;8.70;99.90
19966;DHT22;10144;50.874;4.762;2023-12-14T12:30:36;8.70;99.90
19966;DHT22;10144;50.874;4.762;2023-12-14T12:33:03;8.70;99.90
19966;DHT22;10144;50.874;4.762;2023-12-14T12:35:30;8.70;99.90
19966;DHT22;10144;50.874;4.762;2023-12-14T12:38:00;8.60;99.90
19966;DHT22;10144;50.874;4.762;2023-12-14T12:40:27;8.50;99.90
19966;DHT22;10144;50.874;4.762;2023-12-14T12:42:53;8.60;99.90
19966;DHT22;10144;50.874;4.762;2023-12-14T12:45:20;8.60;99.90
19966;DHT22;10144;50.874;4.762;2023-12-14T12:47:54;8.60;99.90
19966;DHT22;10144;50.874;4.762;2023-12-14T12:50:21;8.50;99.90
19966;DHT22;10144;50.874;4.762;2023-12-14T12:52:46;8.00;99.90
19966;DHT22;10144;50.874;4.762;2023-12-14T12:55:20;7.90;99.90
19966;DHT22;10144;50.874;4.762;2023-12-14T12:57:46;8.00;99.90
19966;DHT22;10144;50.874;4.762;2023-12-14T13:00:18;8.10;99.90
19966;DHT22;10144;50.874;4.762;2023-12-14T13:02:46;8.40;99.90
19966;DHT22;10144;50.874;4.762;2023-12-14T13:05:15;8.50;99.90
19966;DHT22;10144;50.874;4.762;2023-12-14T13:07:46;8.40;99.90
19966;DHT22;10144;50.874;4.762;2023-12-14T13:10:18;8.40;99.90
19966;DHT22;10144;50.874;4.762;2023-12-14T13:12:44;8.10;99.90
19966;DHT22;10144;50.874;4.762;2023-12-14T13:15:10;7.80;99.90
19966;DHT22;10144;50.874;4.762;2023-12-14T13:17:39;7.80;99.90
19966;DHT22;10144;50.874;4.762;2023-12-14T13:20:05;7.80;99.90
19966;DHT22;10144;50.874;4.762;2023-12-14T13:22:34;7.80;99.90
19966;DHT22;10144;50.874;4.762;2023-12-14T13:25:01;7.90;99.90
19966;DHT22;10144;50.874;4.762;2023-12-14T13:27:31;7.80;99.90
19966;DHT22;10144;50.874;4.762;2023-12-14T13:30:03;8.00;99.90
19966;DHT22;10144;50.874;4.762;2023-12-14T13:32:30;8.20;99.90
19966;DHT22;10144;50.874;4.762;2023-12-14T13:34:58;8.00;99.90
19966;DHT22;10144;50.874;4.762;2023-12-14T13:37:25;8.00;99.90
19966;DHT22;10144;50.874;4.762;2023-12-14T13:39:58;8.00;99.90
19966;DHT22;10144;50.874;4.762;2023-12-14T13:42:29;8.00;99.90
19966;DHT22;10144;50.874;4.762;2023-12-14T13:44:58;8.00;99.90
19966;DHT22;10144;50.874;4.762;2023-12-14T13:47:25;8.00;99.90
19966;DHT22;10144;50.874;4.762;2023-12-14T13:49:51;8.00;99.90
19966;DHT22;10144;50.874;4.762;2023-12-14T13:52:20;8.20;99.90
19966;DHT22;10144;50.874;4.762;2023-12-14T13:54:49;8.20;99.90
19966;DHT22;10144;50.874;4.762;2023-12-14T13:57:17;8.30;99.90
19966;DHT22;10144;50.874;4.762;2023-12-14T13:59:46;8.40;99.90
19966;DHT22;10144;50.874;4.762;2023-12-14T14:02:13;8.60;99.90
19966;DHT22;10144;50.874;4.762;2023-12-14T14:04:41;8.70;99.90
19966;DHT22;10144;50.874;4.762;2023-12-14T14:07:09;8.70;99.90
19966;DHT22;10144;50.874;4.762;2023-12-14T14:09:37;8.70;99.90
19966;DHT22;10144;50.874;4.762;2023-12-14T14:12:06;8.60;99.90
19966;DHT22;10144;50.874;4.762;2023-12-14T14:14:32;8.70;99.90
19966;DHT22;10144;50.874;4.762;2023-12-14T14:17:04;8.60;99.90
19966;DHT22;10144;50.874;4.762;2023-12-14T14:19:33;8.70;99.90
19966;DHT22;10144;50.874;4.762;2023-12-14T14:22:00;8.70;99.90
19966;DHT22;10144;50.874;4.762;2023-12-14T14:24:32;8.80;99.90
19966;DHT22;10144;50.874;4.762;2023-12-14T14:27:01;8.70;99.90
19966;DHT22;10144;50.874;4.762;2023-12-14T14:29:27;8.80;99.90
19966;DHT22;10144;50.874;4.762;2023-12-14T14:31:53;8.70;99.90
19966;DHT22;10144;50.874;4.762;2023-12-14T14:34:22;8.80;99.90
19966;DHT22;10144;50.874;4.762;2023-12-14T14:36:50;8.70;99.90
19966;DHT22;10144;50.874;4.762;2023-12-14T14:39:19;8.80;99.90
19966;DHT22;10144;50.874;4.762;2023-12-14T14:41:45;8.80;99.90
19966;DHT22;10144;50.874;4.762;2023-12-14T14:44:14;8.70;99.90
19966;DHT22;10144;50.874;4.762;2023-12-14T14:46:40;8.70;99.90
19966;DHT22;10144;50.874;4.762;2023-12-14T14:49:12;8.70;99.90
19966;DHT22;10144;50.874;4.762;2023-12-14T14:51:40;8.60;99.90
19966;DHT22;10144;50.874;4.762;2023-12-14T14:54:09;8.70;99.90
19966;DHT22;10144;50.874;4.762;2023-12-14T14:56:35;8.70;99.90
19966;DHT22;10144;50.874;4.762;2023-12-14T14:59:01;8.70;99.90
19966;DHT22;10144;50.874;4.762;2023-12-14T15:01:30;8.50;99.90
19966;DHT22;10144;50.874;4.762;2023-12-14T15:03:59;8.50;99.90
19966;DHT22;10144;50.874;4.762;2023-12-14T15:06:28;8.50;99.90
19966;DHT22;10144;50.874;4.762;2023-12-14T15:08:57;8.50;99.90
19966;DHT22;10144;50.874;4.762;2023-12-14T15:11:26;8.60;99.90
19966;DHT22;10144;50.874;4.762;2023-12-14T15:13:54;8.40;99.90
19966;DHT22;10144;50.874;4.762;2023-12-14T15:16:22;8.30;99.90
19966;DHT22;10144;50.874;4.762;2023-12-14T15:19:06;8.20;99.90
19966;DHT22;10144;50.874;4.762;2023-12-14T15:21:32;8.10;99.90
19966;DHT22;10144;50.874;4.762;2023-12-14T15:24:02;8.10;99.90
19966;DHT22;10144;50.874;4.762;2023-12-14T15:26:28;8.10;99.90
19966;DHT22;10144;50.874;4.762;2023-12-14T15:29:00;8.10;99.90
19966;DHT22;10144;50.874;4.762;2023-12-14T15:31:25;8.10;99.90
19966;DHT22;10144;50.874;4.762;2023-12-14T15:33:57;8.10;99.90
19966;DHT22;10144;50.874;4.762;2023-12-14T15:36:23;8.10;99.90
19966;DHT22;10144;50.874;4.762;2023-12-14T15:38:49;8.20;99.90
19966;DHT22;10144;50.874;4.762;2023-12-14T15:41:15;8.20;99.90
19966;DHT22;10144;50.874;4.762;2023-12-14T15:43:43;8.10;99.90
19966;DHT22;10144;50.874;4.762;2023-12-14T15:46:12;8.10;99.90
19966;DHT22;10144;50.874;4.762;2023-12-14T15:48:39;8.10;99.90
19966;DHT22;10144;50.874;4.762;2023-12-14T15:51:10;8.00;99.90
19966;DHT22;10144;50.874;4.762;2023-12-14T15:53:41;8.00;99.90
19966;DHT22;10144;50.874;4.762;2023-12-14T15:56:07;8.00;99.90
19966;DHT22;10144;50.874;4.762;2023-12-14T15:58:36;8.10;99.90
19966;DHT22;10144;50.874;4.762;2023-12-14T16:01:05;8.10;99.90
19966;DHT22;10144;50.874;4.762;2023-12-14T16:03:32;8.10;99.90
19966;DHT22;10144;50.874;4.762;2023-12-14T16:06:02;8.10;99.90